TAF Text Data
IDs:
Format:
Raw Decoded Include METAR

Data at: 0757 UTC 27 Sep 2020

Region: TOP
KATL 270730Z 2708/2812 VRB03KT P6SM BKN040
  FM271000 00000KT P6SM SCT025 BKN035
  FM271200 17005KT P6SM BKN025 BKN040
  FM271400 17004KT P6SM OVC040
  FM271900 19007KT P6SM VCSH BKN050
  FM280300 19004KT P6SM SCT008 BKN020
  FM280500 19004KT P6SM OVC007


KBOS 270526Z 2706/2812 20009KT P6SM OVC008
  FM271300 19007KT P6SM OVC010
  FM271500 18007KT P6SM BKN020
  FM271800 18010KT P6SM BKN035
  FM280200 18009KT P6SM OVC015


KBWI 270701Z 2707/2812 00000KT 1SM BR OVC002
  TEMPO 2707/2711 1/4SM FG
  FM271500 10004KT P6SM BKN015
  FM271900 14005KT P6SM SCT030
  FM280000 15004KT P6SM BKN250


KCLE 270523Z 2706/2812 19010KT P6SM SKC
  TEMPO 2706/2710 19010G20KT
  FM271000 20010G20KT P6SM FEW250
  FM280000 20008KT P6SM SCT035


KCLT 270531Z 2706/2812 00000KT 5SM BR SCT002 BKN019
  TEMPO 2706/2710 1/2SM FG BKN002 OVC015
  FM271000 00000KT 2SM BR SCT002 OVC008
  FM271300 21003KT P6SM BKN025
  FM271700 22004KT P6SM BKN035
  FM280400 19004KT P6SM BKN018
  FM280800 19004KT P6SM BKN004
  PROB30 2808/2812 4SM -SHRA BR OVC003


KCVG 270530Z 2706/2812 19007KT P6SM SKC
  FM271000 19006KT P6SM SCT015 BKN025
  TEMPO 2712/2714 BKN025
  FM271600 21010G18KT P6SM BKN035
  FM272200 19006KT P6SM SCT040 SCT250
  FM280900 20004KT P6SM BKN030


KDCA 270539Z 2706/2812 00000KT 2SM -DZ BR OVC007
  FM270800 VRB03KT 1SM BR OVC004
  FM271300 VRB03KT P6SM BKN025
  FM272200 17006KT P6SM BKN250


KDEN 270537Z 2706/2812 07007KT P6SM FEW035 BKN150
  FM270900 15008KT P6SM SCT150
  FM271500 01012KT P6SM SCT200
  FM271900 02018G25KT P6SM VCSH SCT100 BKN150
  FM280100 03012KT P6SM SCT150
  FM280400 27007KT P6SM SCT150


KDFW 270520Z 2706/2812 15015KT P6SM SKC
  FM271100 17016KT P6SM BKN015
  FM271700 18017G27KT P6SM SCT025 BKN040
  FM280300 22010KT P6SM VCTS BKN025CB
  FM280500 35022G32KT P6SM VCSH OVC010
  FM280700 35018G28KT P6SM SCT025 BKN060


KDTW 270537Z 2706/2812 21012G22KT P6SM BKN250 WS015/24040KT
  FM270800 20013G20KT P6SM OVC025 WS015/24040KT
  FM271400 22015G25KT P6SM BKN025
  FM271700 24013G20KT P6SM BKN045
  FM272000 23013KT P6SM BKN045


KEWR 270527Z 2706/2812 VRB04KT 4SM BR OVC005
  FM271400 09004KT P6SM BKN020
  FM271700 10008KT P6SM SCT030
  FM280200 09005KT P6SM BKN008


KFLL 270552Z 2706/2812 VRB03KT P6SM SCT150 BKN250
  FM271300 10008KT P6SM VCSH SCT025 SCT250
  PROB30 2715/2720 6SM TSRA SCT025CB BKN050
  FM272300 12008KT P6SM SCT035 SCT250
  FM280200 VRB03KT P6SM SCT250


KIAD 270614Z 2706/2812 31004KT P6SM OVC008
  FM271100 00000KT 3SM BR OVC004
  FM271400 VRB03KT P6SM BKN025
  FM271700 16004KT P6SM SCT025
  FM272000 17006KT P6SM BKN030
  FM281100 19005KT 5SM BR SCT200


KIAH 270520Z 2706/2812 16004KT P6SM SCT020
  FM271000 VRB03KT 6SM BR FEW010 BKN025
  FM271500 17007KT P6SM FEW015 SCT030
  FM272000 18012KT P6SM SCT040
  FM280300 16007KT P6SM FEW020


KJFK 270527Z 2706/2812 VRB04KT 4SM BR OVC004
  FM271400 13007KT P6SM BKN020
  FM271800 13010KT P6SM SCT030
  FM280200 12007KT P6SM BKN008


KLAS 270520Z 2706/2812 21008KT P6SM BKN250
  FM271700 04010KT P6SM FEW250
  FM280600 04014G24KT P6SM SKC


KLAX 270740Z 2708/2812 15006KT P6SM OVC012
  FM271800 26010KT P6SM SCT200
  FM280400 25006KT P6SM OVC010


KLGA 270527Z 2706/2812 VRB04KT 4SM BR OVC006
  FM271400 09006KT P6SM BKN020
  FM271700 10009KT P6SM SCT030
  FM280200 10006KT P6SM BKN008


KMCO 270538Z 2706/2812 00000KT P6SM SCT250
  FM271400 11006KT P6SM SCT035
  FM271900 10006KT P6SM VCTS SCT040CB BKN080
  TEMPO 2721/2724 3SM TSRA BKN030CB
  FM280100 09003KT P6SM SCT060 BKN120


KMDW 270545Z 2706/2812 20017G28KT P6SM BKN250
  FM271000 22011G17KT P6SM SCT012 BKN250
  FM271600 27010KT P6SM FEW030 BKN200
  FM272000 33013G20KT P6SM SCT050 OVC100
  FM280100 31009KT 6SM -RA SCT025 OVC050
  TEMPO 2803/2807 4SM RA BR BKN015
  FM280700 28007KT 4SM -RA BR SCT007 OVC015


KMEM 270520Z 2706/2812 18005KT P6SM SKC
  FM271400 21008KT P6SM SCT030
  FM271800 22009KT P6SM BKN035
  FM280000 19007KT P6SM SCT040
  FM280900 24008KT P6SM VCSH FEW020 BKN040


KMIA 270552Z 2706/2812 VRB03KT P6SM BKN150 BKN250
  FM271400 11008KT P6SM VCSH SCT025 SCT250
  PROB30 2715/2721 6SM TSRA SCT025CB BKN050
  FM280100 VRB03KT P6SM SCT035 SCT250


KMSP 270520Z 2706/2812 31007KT P6SM SCT045 BKN080
  FM270900 25007KT P6SM SKC
  FM271500 26015G23KT P6SM FEW250
  FM271900 27017G26KT P6SM OVC040
  FM280100 30012G18KT P6SM SCT050


KORD 270545Z 2706/2812 20017G28KT P6SM BKN250
  FM271000 22011G17KT P6SM SCT012 BKN250
  FM271600 27010KT P6SM FEW030 BKN200
  FM272000 33013G20KT P6SM SCT050 OVC100
  FM280100 31009KT 6SM -RA SCT025 OVC050
  TEMPO 2803/2807 4SM RA BR BKN015
  FM280700 28007KT 4SM -RA BR SCT007 OVC015


KPDX 270520Z 2706/2806 29005KT P6SM FEW090
  FM270900 VRB03KT P6SM FEW070
  FM271300 VRB02KT P6SM BKN014
  FM271700 07004KT P6SM SKC
  FM272100 36009KT P6SM SKC


KPHL 270526Z 2706/2812 16005KT 6SM -DZ BR OVC010
  FM270900 14002KT 1SM -DZ BR OVC003
  FM271300 13005KT 5SM -DZ BR OVC008
  FM271500 15007KT P6SM OVC015
  FM271800 12007KT P6SM SCT015 OVC035
  FM280200 14005KT P6SM BKN015
  FM280500 18005KT 6SM BR OVC008


KPHX 270520Z 2706/2812 30004KT P6SM SKC
  TEMPO 2706/2709 VRB04KT
  FM271100 10005KT P6SM FEW250
  FM272000 27008KT P6SM SKC
  FM281000 10006KT P6SM SKC


KPIT 270527Z 2706/2812 19004KT P6SM SCT035
  FM271700 20007KT P6SM SCT040


KSAN 270520Z 2706/2812 VRB03KT P6SM OVC012
  FM271900 22008KT P6SM SCT015
  FM280300 VRB04KT P6SM BKN012


KSEA 270539Z 2706/2812 19006KT P6SM SCT020 SCT070
  FM271200 19008KT P6SM OVC010
  FM271700 23006KT P6SM BKN022
  FM271800 23006KT P6SM SCT030 SCT250
  FM272300 01006KT P6SM SKC


KSFO 270537Z 2706/2812 28013KT P6SM FEW200
  FM270800 29008KT 6SM FU HZ FEW010 FEW200
  FM271000 VRB04KT 6SM FU HZ FEW010 FEW200
  FM272000 33008KT P6SM SKC
  FM272300 31015KT P6SM SKC
  FM280400 31007KT P6SM SKC
  FM280700 VRB03KT P6SM FEW012


KSLC 270520Z 2706/2812 12005KT P6SM SCT200
  FM271800 34012KT P6SM SKC


KSTL 270520Z 2706/2812 19010KT P6SM SCT250
  FM271400 23009KT P6SM SCT030 BKN060
  FM272000 30010KT P6SM VCSH OVC050
  FM280000 35014G20KT P6SM VCSH OVC025
  FM280200 34012G18KT 5SM -RA BR OVC010
  FM280800 30006KT 6SM BR OVC010


KTPA 270531Z 2706/2812 VRB03KT P6SM FEW030 SCT120 BKN250
  FM271500 14005KT P6SM SCT025 BKN150 OVC250
  FM271800 23007KT P6SM VCTS SCT030CB BKN050 OVC120
  FM272100 29008KT P6SM VCTS SCT030CB BKN050 OVC100
  FM280200 VRB04KT P6SM VCSH FEW030 SCT050 OVC100